Time;durP1;ratioP1;P1;durP2;ratioP2;P2;SDS_P1;SDS_P2;PMS_P1;PMS_P2;Temp;Humidity;BMP_temperature;BMP_pressure;BME280_temperature;BME280_humidity;BME280_pressure;Samples;Min_cycle;Max_cycle;Signal;HPM_P1;HPM_P2
2022/03/31 12:04:07;;;;;;;;;0.00;0.00;;;;;;;;1560385;28;83512;-56
2022/03/31 12:04:52;;;;;;;;;0.00;0.00;;;;;;;;1559383;27;83469;-55
2022/03/31 12:05:37;;;;;;;;;0.00;0.00;;;;;;;;1554760;28;83727;-59
2022/03/31 12:06:23;;;;;;;;;0.00;0.00;;;;;;;;1553349;28;83427;-60
2022/03/31 12:07:09;;;;;;;;;0.00;0.00;;;;;;;;1553301;28;83356;-63
2022/03/31 12:07:54;;;;;;;;;0.00;0.00;;;;;;;;1545204;27;83249;-63
2022/03/31 12:08:40;;;;;;;;;0.00;0.00;;;;;;;;1533746;28;83553;-61
2022/03/31 12:09:28;;;;;;;;;0.00;0.00;;;;;;;;1533868;28;83264;-73
2022/03/31 12:10:14;;;;;;;;;0.00;0.00;;;;;;;;1540963;28;83607;-75
2022/03/31 12:10:59;;;;;;;;;0.00;0.00;;;;;;;;1540871;28;83645;-73
2022/03/31 12:11:46;;;;;;;;;0.00;0.00;;;;;;;;1540887;28;83414;-74
2022/03/31 12:12:32;;;;;;;;;0.00;0.00;;;;;;;;1543526;28;83350;-76
2022/03/31 12:13:18;;;;;;;;;0.00;0.00;;;;;;;;1546611;28;83489;-76
2022/03/31 12:14:03;;;;;;;;;0.00;0.00;;;;;;;;1539805;28;84109;-75
2022/03/31 12:14:56;;;;;;;;;0.00;0.00;;;;;;;;1535978;28;83611;-76
2022/03/31 12:15:41;;;;;;;;;0.00;0.00;;;;;;;;1539301;28;83902;-76
2022/03/31 12:16:26;;;;;;;;;0.00;0.00;;;;;;;;1545659;28;83423;-75
2022/03/31 12:17:12;;;;;;;;;0.00;0.00;;;;;;;;1547051;28;83862;-75
2022/03/31 12:17:59;;;;;;;;;0.00;0.00;;;;;;;;1545165;28;83462;-75
2022/03/31 12:18:51;;;;;;;;;0.00;0.00;;;;;;;;1545553;28;83476;-76
2022/03/31 12:19:38;;;;;;;;;0.00;0.00;;;;;;;;1546897;28;85978;-75
2022/03/31 12:20:24;;;;;;;;;0.00;0.00;;;;;;;;1544347;28;83454;-75
2022/03/31 12:21:10;;;;;;;;;0.00;0.00;;;;;;;;1540034;28;85481;-76
2022/03/31 12:21:58;;;;;;;;;0.00;0.00;;;;;;;;1545497;28;83478;-74
2022/03/31 12:22:44;;;;;;;;;0.00;0.00;;;;;;;;1545685;28;83677;-75
2022/03/31 12:23:29;;;;;;;;;0.00;0.00;;;;;;;;1547043;28;83929;-71
2022/03/31 12:24:15;;;;;;;;;0.00;0.00;;;;;;;;1547215;28;83815;-73
2022/03/31 12:25:00;;;;;;;;;0.00;0.00;;;;;;;;1547142;28;83517;-73
2022/03/31 12:25:45;;;;;;;;;0.00;0.00;;;;;;;;1549633;28;83397;-72
2022/03/31 12:26:30;;;;;;;;;0.00;0.00;;;;;;;;1547179;28;83213;-73
2022/03/31 12:27:19;;;;;;;;;0.00;0.00;;;;;;;;1547030;28;83653;-73
2022/03/31 12:28:05;;;;;;;;;0.00;0.00;;;;;;;;1543320;28;83780;-73
2022/03/31 12:28:50;;;;;;;;;0.00;0.00;;;;;;;;1540984;28;83086;-73
2022/03/31 12:29:35;;;;;;;;;0.00;0.00;;;;;;;;1541061;28;83841;-73
2022/03/31 12:30:21;;;;;;;;;0.00;0.00;;;;;;;;1541022;28;83928;-73
2022/03/31 12:31:06;;;;;;;;;0.00;0.00;;;;;;;;1541135;28;83833;-73
2022/03/31 12:32:00;;;;;;;;;0.00;0.00;;;;;;;;1540748;28;83780;-73
2022/03/31 12:32:47;;;;;;;;;0.00;0.00;;;;;;;;1540541;28;83974;-73
2022/03/31 12:33:34;;;;;;;;;0.50;0.00;;;;;;;;1540901;28;84014;-73
2022/03/31 12:34:19;;;;;;;;;0.00;0.00;;;;;;;;1540958;28;84124;-73
2022/03/31 12:35:05;;;;;;;;;0.00;0.00;;;;;;;;1540435;28;86944;-73
2022/03/31 12:36:00;;;;;;;;;0.00;0.00;;;;;;;;1540804;28;83906;-73
2022/03/31 12:36:48;;;;;;;;;0.00;0.00;;;;;;;;1540753;28;84611;-72
2022/03/31 12:37:38;;;;;;;;;0.00;0.00;;;;;;;;1540862;28;83923;-73
2022/03/31 12:38:33;;;;;;;;;0.00;0.00;;;;;;;;1540941;28;83175;-73
2022/03/31 12:39:18;;;;;;;;;0.00;0.00;;;;;;;;1540717;28;85441;-73
2022/03/31 12:40:09;;;;;;;;;0.33;0.33;;;;;;;;1543262;28;83053;-73
2022/03/31 12:40:54;;;;;;;;;0.00;0.00;;;;;;;;1546470;28;83760;-73
2022/03/31 12:41:39;;;;;;;;;0.00;0.00;;;;;;;;1546731;28;83687;-73
2022/03/31 12:42:25;;;;;;;;;1.00;1.00;;;;;;;;1546530;28;84147;-73
2022/03/31 12:43:10;;;;;;;;;0.00;0.00;;;;;;;;1541113;28;83942;-73
2022/03/31 12:44:10;;;;;;;;;0.00;0.00;;;;;;;;1543585;28;83788;-73
2022/03/31 12:44:55;;;;;;;;;0.00;0.00;;;;;;;;1546871;28;83729;-73
2022/03/31 12:45:40;;;;;;;;;0.00;0.00;;;;;;;;1546999;28;84219;-73
2022/03/31 12:46:28;;;;;;;;;0.33;0.33;;;;;;;;1547037;28;83748;-73
2022/03/31 12:47:20;;;;;;;;;0.00;0.00;;;;;;;;1547125;28;83932;-73
2022/03/31 12:48:09;;;;;;;;;0.00;0.00;;;;;;;;1541886;28;83531;-72
2022/03/31 12:48:56;;;;;;;;;0.00;0.00;;;;;;;;1543551;28;83354;-73
2022/03/31 12:49:42;;;;;;;;;0.00;0.00;;;;;;;;1540868;28;83306;-73
2022/03/31 12:50:27;;;;;;;;;0.00;0.00;;;;;;;;1540874;28;83487;-74
2022/03/31 12:51:12;;;;;;;;;0.00;0.00;;;;;;;;1540993;28;83009;-73
2022/03/31 12:51:59;;;;;;;;;1.00;1.00;;;;;;;;1540846;28;82978;-73
2022/03/31 12:52:58;;;;;;;;;0.60;0.60;;;;;;;;1540892;28;83057;-73
2022/03/31 12:53:43;;;;;;;;;0.00;0.00;;;;;;;;1540891;28;83276;-73
2022/03/31 12:54:35;;;;;;;;;1.00;1.00;;;;;;;;1543234;28;83361;-73
2022/03/31 12:55:25;;;;;;;;;0.00;0.00;;;;;;;;1546869;28;83333;-73
2022/03/31 12:56:11;;;;;;;;;0.80;0.80;;;;;;;;1547141;28;83033;-73
2022/03/31 12:56:57;;;;;;;;;0.00;0.00;;;;;;;;1546948;28;82852;-73
2022/03/31 12:57:53;;;;;;;;;0.00;0.00;;;;;;;;1542931;28;83192;-73
2022/03/31 12:58:38;;;;;;;;;1.00;1.00;;;;;;;;1540909;28;83365;-73
2022/03/31 12:59:26;;;;;;;;;0.00;0.00;;;;;;;;1540880;28;83267;-73
2022/03/31 13:00:13;;;;;;;;;0.00;0.00;;;;;;;;1540905;28;83055;-73
2022/03/31 13:00:59;;;;;;;;;0.50;0.50;;;;;;;;1540876;28;82971;-72
2022/03/31 13:01:54;;;;;;;;;0.00;0.00;;;;;;;;1540830;28;83215;-73
2022/03/31 13:02:40;;;;;;;;;0.00;0.00;;;;;;;;1541763;28;83067;-73
2022/03/31 13:03:26;;;;;;;;;0.00;0.00;;;;;;;;1540502;28;82816;-73
2022/03/31 13:04:11;;;;;;;;;1.00;1.00;;;;;;;;1540957;28;83169;-73
2022/03/31 13:04:56;;;;;;;;;0.75;0.75;;;;;;;;1544042;28;82712;-73
2022/03/31 13:05:44;;;;;;;;;0.00;0.00;;;;;;;;1547020;28;83075;-73
2022/03/31 13:06:29;;;;;;;;;1.00;1.00;;;;;;;;1546866;28;83067;-72
2022/03/31 13:07:16;;;;;;;;;0.00;0.00;;;;;;;;1546823;28;83062;-73
2022/03/31 13:08:01;;;;;;;;;0.00;0.00;;;;;;;;1546350;28;83297;-73
2022/03/31 13:08:46;;;;;;;;;0.00;0.00;;;;;;;;1546842;28;83249;-73
2022/03/31 13:09:32;;;;;;;;;0.00;0.00;;;;;;;;1546538;28;83076;-73
2022/03/31 13:10:17;;;;;;;;;0.00;0.00;;;;;;;;1546232;28;83096;-71
2022/03/31 13:11:03;;;;;;;;;0.33;0.33;;;;;;;;1549720;28;83131;-73
2022/03/31 13:11:51;;;;;;;;;0.00;0.00;;;;;;;;1546548;28;83748;-73
2022/03/31 13:12:37;;;;;;;;;1.00;1.00;;;;;;;;1544648;28;83395;-73
2022/03/31 13:13:22;;;;;;;;;0.00;0.00;;;;;;;;1546650;28;83469;-73
2022/03/31 13:14:10;;;;;;;;;0.00;0.00;;;;;;;;1546941;28;83175;-73
2022/03/31 13:14:56;;;;;;;;;0.00;0.00;;;;;;;;1545601;28;83252;-73
2022/03/31 13:15:41;;;;;;;;;0.25;0.25;;;;;;;;1542155;28;84807;-72
2022/03/31 13:16:27;;;;;;;;;1.00;1.00;;;;;;;;1542359;28;83354;-72
2022/03/31 13:17:14;;;;;;;;;1.00;1.00;;;;;;;;1541775;28;83615;-72
2022/03/31 13:18:00;;;;;;;;;0.25;0.25;;;;;;;;1536666;28;83305;-73
2022/03/31 13:18:45;;;;;;;;;1.00;1.00;;;;;;;;1536620;28;83295;-73
2022/03/31 13:19:31;;;;;;;;;1.00;1.00;;;;;;;;1536734;28;83569;-73
2022/03/31 13:20:16;;;;;;;;;0.00;0.00;;;;;;;;1536835;28;83551;-73
2022/03/31 13:21:02;;;;;;;;;1.00;1.00;;;;;;;;1536771;28;83156;-73
2022/03/31 13:21:47;;;;;;;;;1.00;1.00;;;;;;;;1536678;28;83439;-72
2022/03/31 13:22:33;;;;;;;;;0.33;0.33;;;;;;;;1536600;28;83404;-72
2022/03/31 13:23:18;;;;;;;;;1.00;1.00;;;;;;;;1536359;28;83550;-73
2022/03/31 13:24:04;;;;;;;;;0.00;0.00;;;;;;;;1536325;28;83383;-72
2022/03/31 13:24:51;;;;;;;;;0.75;0.75;;;;;;;;1536346;28;83880;-72
2022/03/31 13:25:36;;;;;;;;;0.00;0.00;;;;;;;;1536353;28;83435;-73
2022/03/31 13:26:21;;;;;;;;;2.00;2.00;;;;;;;;1540650;28;83438;-72
2022/03/31 13:27:07;;;;;;;;;1.00;1.00;;;;;;;;1541795;28;84019;-72
2022/03/31 13:27:52;;;;;;;;;0.00;0.00;;;;;;;;1537999;28;83193;-72
2022/03/31 13:28:39;;;;;;;;;1.00;1.00;;;;;;;;1541813;28;83642;-73
2022/03/31 13:29:25;;;;;;;;;1.00;1.00;;;;;;;;1542604;28;84013;-73
2022/03/31 13:30:10;;;;;;;;;0.67;0.67;;;;;;;;1542555;28;83884;-72
2022/03/31 13:30:55;;;;;;;;;0.67;0.67;;;;;;;;1542059;28;83262;-73
2022/03/31 13:31:42;;;;;;;;;2.00;2.00;;;;;;;;1542504;28;83156;-72
2022/03/31 13:32:28;;;;;;;;;1.00;1.00;;;;;;;;1543061;28;83795;-72
2022/03/31 13:33:14;;;;;;;;;2.00;2.00;;;;;;;;1542518;28;83823;-73
2022/03/31 13:33:59;;;;;;;;;1.25;1.25;;;;;;;;1542513;28;83255;-72
2022/03/31 13:34:47;;;;;;;;;1.75;1.75;;;;;;;;1542520;28;83949;-73
2022/03/31 13:35:34;;;;;;;;;1.40;1.40;;;;;;;;1542394;28;83237;-73
2022/03/31 13:36:19;;;;;;;;;0.80;0.80;;;;;;;;1542617;28;83952;-72
2022/03/31 13:37:05;;;;;;;;;1.00;1.00;;;;;;;;1542578;28;82981;-73
2022/03/31 13:37:53;;;;;;;;;1.00;1.00;;;;;;;;1541953;28;83977;-71
2022/03/31 13:38:38;;;;;;;;;1.25;1.25;;;;;;;;1542435;28;83769;-71
2022/03/31 13:39:23;;;;;;;;;2.00;2.00;;;;;;;;1542015;28;83710;-71
2022/03/31 13:40:09;;;;;;;;;1.00;1.00;;;;;;;;1542577;28;84132;-72
2022/03/31 13:40:54;;;;;;;;;1.00;1.00;;;;;;;;1542038;28;83993;-72
2022/03/31 13:41:40;;;;;;;;;2.00;2.00;;;;;;;;1542511;28;83865;-72
2022/03/31 13:42:25;;;;;;;;;1.00;1.00;;;;;;;;1537004;28;83648;-72
2022/03/31 13:43:11;;;;;;;;;0.67;0.67;;;;;;;;1536578;28;83000;-72
2022/03/31 13:43:56;;;;;;;;;1.00;1.00;;;;;;;;1537159;28;84244;-72
2022/03/31 13:44:41;;;;;;;;;1.33;1.33;;;;;;;;1542430;28;83952;-72
2022/03/31 13:45:27;;;;;;;;;1.33;1.33;;;;;;;;1542404;28;83873;-71
2022/03/31 13:46:12;;;;;;;;;1.67;1.67;;;;;;;;1542570;28;83747;-72
2022/03/31 13:46:57;;;;;;;;;2.00;2.00;;;;;;;;1542382;28;83713;-72
2022/03/31 13:47:44;;;;;;;;;1.00;1.00;;;;;;;;1541978;28;83070;-72
2022/03/31 13:48:30;;;;;;;;;1.00;1.00;;;;;;;;1541779;28;83847;-72
2022/03/31 13:49:15;;;;;;;;;1.00;1.00;;;;;;;;1542248;28;83016;-72
2022/03/31 13:50:00;;;;;;;;;1.00;1.00;;;;;;;;1542374;28;83887;-72
2022/03/31 13:50:45;;;;;;;;;2.00;2.00;;;;;;;;1542397;28;84000;-72
2022/03/31 13:51:31;;;;;;;;;2.00;2.00;;;;;;;;1542390;28;83907;-71
2022/03/31 13:52:16;;;;;;;;;1.00;1.00;;;;;;;;1542576;28;83800;-72
2022/03/31 13:54:06;;;;;;;;;1.00;1.00;;;;;;;;1542454;28;83191;-72
2022/03/31 13:54:52;;;;;;;;;2.00;2.00;;;;;;;;1545049;28;83907;-72
2022/03/31 13:55:37;;;;;;;;;1.00;1.00;;;;;;;;1542402;28;83214;-72
2022/03/31 13:56:22;;;;;;;;;1.00;1.00;;;;;;;;1542317;28;83072;-72
2022/03/31 14:01:07;;;;;;;;;1.00;1.00;;;;;;;;1540822;28;83045;-72
2022/03/31 14:01:26;;;;;;;;;1.50;1.50;;;;;;;;1542483;28;83093;-72
2022/03/31 14:02:12;;;;;;;;;1.00;1.00;;;;;;;;1542563;28;83175;-71
2022/03/31 14:02:57;;;;;;;;;0.00;0.00;;;;;;;;1542570;28;83361;-71
2022/03/31 14:03:44;;;;;;;;;0.00;0.00;;;;;;;;1542171;28;83324;-72
2022/03/31 14:04:29;;;;;;;;;0.75;0.75;;;;;;;;1542363;28;83302;-72
2022/03/31 14:05:14;;;;;;;;;1.33;1.33;;;;;;;;1542451;28;82855;-71
2022/03/31 14:06:00;;;;;;;;;1.00;1.00;;;;;;;;1542135;28;83384;-72
2022/03/31 14:06:45;;;;;;;;;1.00;1.00;;;;;;;;1542339;28;83301;-72
2022/03/31 14:07:30;;;;;;;;;1.00;1.00;;;;;;;;1542011;28;83329;-71
2022/03/31 14:08:16;;;;;;;;;1.00;1.00;;;;;;;;1542498;28;83186;-72
2022/03/31 14:09:04;;;;;;;;;1.00;1.00;;;;;;;;1542380;28;83155;-72
2022/03/31 14:09:49;;;;;;;;;1.00;1.00;;;;;;;;1542206;28;83456;-72
2022/03/31 14:10:34;;;;;;;;;1.00;1.00;;;;;;;;1542449;28;82985;-72
2022/03/31 14:11:20;;;;;;;;;1.33;1.33;;;;;;;;1542328;28;83175;-72
2022/03/31 14:12:06;;;;;;;;;0.00;0.00;;;;;;;;1540437;28;82978;-72
2022/03/31 14:12:51;;;;;;;;;2.00;2.00;;;;;;;;1542251;28;83195;-72
2022/03/31 14:13:37;;;;;;;;;0.33;0.33;;;;;;;;1542226;28;83306;-72
2022/03/31 14:14:23;;;;;;;;;1.00;1.00;;;;;;;;1542528;28;83353;-72
2022/03/31 14:15:09;;;;;;;;;1.25;1.25;;;;;;;;1542378;28;83248;-72
2022/03/31 14:15:54;;;;;;;;;1.33;1.33;;;;;;;;1542064;28;83567;-72
2022/03/31 14:16:41;;;;;;;;;3.33;3.33;;;;;;;;1541036;28;83538;-72
2022/03/31 14:17:26;;;;;;;;;1.00;1.00;;;;;;;;1539736;28;83509;-72
2022/03/31 14:18:11;;;;;;;;;2.33;2.33;;;;;;;;1536358;28;83392;-72
2022/03/31 14:18:57;;;;;;;;;1.00;1.00;;;;;;;;1536252;28;83766;-72
2022/03/31 14:19:42;;;;;;;;;1.00;1.00;;;;;;;;1536240;28;83384;-72
2022/03/31 14:20:28;;;;;;;;;1.67;1.67;;;;;;;;1535939;28;83379;-72
2022/03/31 14:21:13;;;;;;;;;2.00;2.00;;;;;;;;1536404;28;83062;-72
2022/03/31 14:21:58;;;;;;;;;2.00;2.00;;;;;;;;1535914;28;84064;-72
2022/03/31 14:22:44;;;;;;;;;2.00;2.00;;;;;;;;1536125;28;83367;-72
2022/03/31 14:23:29;;;;;;;;;1.00;1.00;;;;;;;;1536133;28;82906;-72
2022/03/31 14:24:15;;;;;;;;;2.00;2.00;;;;;;;;1536235;28;83619;-72
2022/03/31 14:25:03;;;;;;;;;1.00;1.00;;;;;;;;1536232;28;83426;-72
2022/03/31 14:25:48;;;;;;;;;2.00;2.00;;;;;;;;1536183;28;83500;-72
2022/03/31 14:26:33;;;;;;;;;1.00;1.00;;;;;;;;1537159;28;83091;-72
2022/03/31 14:27:19;;;;;;;;;1.00;1.00;;;;;;;;1535559;28;83447;-72
2022/03/31 14:28:05;;;;;;;;;2.00;2.00;;;;;;;;1536017;28;83448;-72
2022/03/31 14:28:51;;;;;;;;;1.50;1.50;;;;;;;;1536097;28;83456;-72
2022/03/31 14:29:36;;;;;;;;;1.00;1.00;;;;;;;;1536149;28;83254;-72
2022/03/31 14:30:21;;;;;;;;;2.00;2.00;;;;;;;;1536391;28;83281;-72
2022/03/31 14:31:18;;;;;;;;;1.33;1.33;;;;;;;;1536203;28;83480;-72
2022/03/31 14:32:04;;;;;;;;;2.00;2.00;;;;;;;;1540804;28;84291;-72
2022/03/31 14:32:49;;;;;;;;;0.33;0.33;;;;;;;;1542219;28;83047;-72
2022/03/31 14:33:34;;;;;;;;;1.00;1.00;;;;;;;;1542365;28;83638;-72
2022/03/31 14:34:20;;;;;;;;;0.00;0.00;;;;;;;;1542492;28;83397;-72
2022/03/31 14:35:05;;;;;;;;;0.33;0.33;;;;;;;;1541917;28;85507;-72
2022/03/31 14:35:51;;;;;;;;;1.00;1.00;;;;;;;;1541437;28;83345;-72
2022/03/31 14:36:36;;;;;;;;;1.33;1.33;;;;;;;;1541907;28;83342;-72
2022/03/31 14:37:22;;;;;;;;;0.33;0.33;;;;;;;;1542326;28;83225;-72
2022/03/31 14:38:07;;;;;;;;;1.00;1.00;;;;;;;;1542220;28;83440;-72
2022/03/31 14:38:53;;;;;;;;;1.33;1.33;;;;;;;;1542221;28;83253;-72
2022/03/31 14:39:40;;;;;;;;;1.50;1.50;;;;;;;;1544911;28;83821;-72
2022/03/31 14:40:25;;;;;;;;;1.00;1.00;;;;;;;;1542150;28;84012;-72
2022/03/31 14:41:11;;;;;;;;;1.00;1.00;;;;;;;;1540788;28;83197;-72
2022/03/31 14:41:57;;;;;;;;;1.00;1.00;;;;;;;;1536434;28;83885;-72
2022/03/31 14:42:42;;;;;;;;;0.00;0.00;;;;;;;;1536038;28;83941;-71
2022/03/31 14:43:27;;;;;;;;;1.00;1.00;;;;;;;;1535978;28;83749;-71
2022/03/31 14:44:16;;;;;;;;;1.00;1.00;;;;;;;;1536119;28;83965;-71
2022/03/31 14:45:03;;;;;;;;;0.25;0.25;;;;;;;;1536110;28;83868;-71
2022/03/31 14:45:48;;;;;;;;;2.00;2.00;;;;;;;;1536036;28;83882;-71
2022/03/31 14:46:35;;;;;;;;;2.00;2.00;;;;;;;;1536939;28;82982;-71
2022/03/31 14:47:21;;;;;;;;;1.00;1.00;;;;;;;;1536141;28;83977;-71
2022/03/31 14:48:09;;;;;;;;;0.00;0.00;;;;;;;;1536122;28;83957;-71
2022/03/31 14:48:55;;;;;;;;;1.00;1.00;;;;;;;;1536200;28;84002;-71
2022/03/31 14:49:40;;;;;;;;;1.00;1.00;;;;;;;;1535928;28;83907;-71
2022/03/31 14:50:26;;;;;;;;;1.00;1.00;;;;;;;;1535709;28;83807;-71
2022/03/31 14:51:13;;;;;;;;;0.67;0.67;;;;;;;;1536062;28;83852;-70
2022/03/31 14:51:58;;;;;;;;;0.00;0.00;;;;;;;;1536112;28;83969;-71
2022/03/31 14:52:44;;;;;;;;;0.00;0.00;;;;;;;;1536098;28;83631;-71
2022/03/31 14:53:29;;;;;;;;;0.00;0.00;;;;;;;;1536083;28;83910;-71
2022/03/31 14:54:15;;;;;;;;;0.00;0.00;;;;;;;;1536098;28;82894;-71
2022/03/31 14:55:00;;;;;;;;;0.00;0.00;;;;;;;;1536127;28;83986;-71
2022/03/31 14:55:46;;;;;;;;;0.33;0.33;;;;;;;;1536013;28;83839;-71
2022/03/31 14:56:31;;;;;;;;;0.33;0.33;;;;;;;;1539758;28;84029;-71
2022/03/31 14:57:17;;;;;;;;;0.00;0.00;;;;;;;;1542285;28;84157;-71
2022/03/31 14:58:07;;;;;;;;;0.67;0.67;;;;;;;;1542155;28;84364;-71
2022/03/31 14:58:53;;;;;;;;;0.00;0.00;;;;;;;;1541990;28;83996;-71
2022/03/31 14:59:38;;;;;;;;;0.67;0.67;;;;;;;;1542193;28;83859;-71
2022/03/31 15:00:23;;;;;;;;;0.00;0.00;;;;;;;;1542277;28;83835;-71
2022/03/31 15:01:08;;;;;;;;;1.00;1.00;;;;;;;;1543395;28;83783;-71
2022/03/31 15:01:54;;;;;;;;;0.50;0.50;;;;;;;;1541748;28;83130;-71
2022/03/31 15:02:39;;;;;;;;;0.00;0.00;;;;;;;;1542194;28;83150;-71
2022/03/31 15:03:25;;;;;;;;;1.00;1.00;;;;;;;;1541811;28;83703;-71
2022/03/31 15:04:14;;;;;;;;;0.33;0.33;;;;;;;;1542120;28;83425;-71
2022/03/31 15:04:59;;;;;;;;;1.00;1.00;;;;;;;;1541794;28;83150;-71
2022/03/31 15:05:44;;;;;;;;;1.00;1.00;;;;;;;;1542182;28;83140;-71
2022/03/31 15:06:30;;;;;;;;;1.00;1.00;;;;;;;;1542093;28;83085;-72
2022/03/31 15:07:18;;;;;;;;;1.00;1.00;;;;;;;;1536012;28;83187;-71
2022/03/31 15:08:03;;;;;;;;;1.50;1.50;;;;;;;;1535968;28;83219;-71
2022/03/31 15:08:49;;;;;;;;;1.00;1.00;;;;;;;;1535983;28;83309;-71
2022/03/31 15:14:53;;;;;;;;;1.00;1.00;;;;;;;;1536061;28;83186;-77
2022/03/31 15:15:38;;;;;;;;;2.00;2.00;;;;;;;;1536802;28;83194;-77
2022/03/31 15:16:24;;;;;;;;;1.00;1.00;;;;;;;;1537288;28;83241;-77
2022/03/31 15:17:14;;;;;;;;;1.00;1.00;;;;;;;;1536031;28;83350;-71
2022/03/31 15:17:59;;;;;;;;;;;;;;;;;;1537940;28;83685;-60
2022/03/31 15:18:45;;;;;;;;;;;;;;;;;;1535317;28;83405;-71
2022/03/31 15:19:30;;;;;;;;;;;;;;;;;;1536207;28;83137;-72
2022/03/31 15:20:15;;;;;;;;;;;;;;;;;;1536543;28;83208;-72
2022/03/31 15:21:01;;;;;;;;;;;;;;;;;;1536468;28;83076;-72
2022/03/31 15:21:49;;;;;;;;;;;;;;;;;;1536379;28;83279;-73
2022/03/31 15:22:34;;;;;;;;;;;;;;;;;;1536686;28;83105;-72
2022/03/31 15:23:19;;;;;;;;;;;;;;;;;;1536588;28;82886;-72
2022/03/31 15:24:05;;;;;;;;;;;;;;;;;;1536151;28;86314;-73
2022/03/31 15:24:50;;;;;;;;;;;;;;;;;;1538895;28;83868;-72
2022/03/31 15:25:35;;;;;;;;;;;;;;;;;;1536586;28;83928;-73
2022/03/31 15:26:20;;;;;;;;;;;;;;;;;;1536868;28;83935;-72
2022/03/31 15:27:05;;;;;;;;;;;;;;;;;;1536544;28;83423;-71
2022/03/31 15:27:50;;;;;;;;;;;;;;;;;;1536415;28;83226;-73
2022/03/31 15:28:35;;;;;;;;;;;;;;;;;;1536526;28;83378;-72
2022/03/31 15:29:21;;;;;;;;;;;;;;;;;;1536714;28;83333;-72
2022/03/31 15:30:06;;;;;;;;;;;;;;;;;;1536388;28;83250;-72
2022/03/31 15:30:51;;;;;;;;;;;;;;;;;;1536533;28;84426;-70
2022/03/31 15:31:36;;;;;;;;;;;;;;;;;;1536560;28;83446;-71
2022/03/31 15:32:21;;;;;;;;;;;;;;;;;;1536709;28;83318;-73
2022/03/31 15:33:09;;;;;;;;;;;;;;;;;;1536534;28;83269;-73
2022/03/31 15:33:54;;;;;;;;;;;;;;;;;;1536383;28;83367;-72
2022/03/31 15:34:39;;;;;;;;;;;;;;;;;;1540869;28;83339;-73
2022/03/31 15:35:24;;;;;;;;;;;;;;;;;;1541719;28;85553;-72
2022/03/31 15:36:09;;;;;;;;;;;;;;;;;;1541898;28;83705;-73
2022/03/31 15:36:55;;;;;;;;;;;;;;;;;;1540665;28;83887;-73
2022/03/31 15:37:40;;;;;;;;;;;;;;;;;;1541694;28;85881;-73
2022/03/31 15:38:25;;;;;;;;;;;;;;;;;;1542115;28;84651;-63
2022/03/31 18:55:04;;;;;;;;;;;;;;;;;;1561182;28;83432;-59
2022/03/31 18:55:49;;;;;;;;;;;;;;;;;;1559839;28;85888;-60
2022/03/31 18:56:34;;;;;;;;;;;;;;;;;;1556888;28;83361;-55
2022/03/31 18:57:20;;;;;;;;;;;;;;;;;;1555147;28;88467;-55
2022/03/31 18:58:05;;;;;;;;;;;;;;;;;;1555231;28;86572;-58
2022/03/31 18:58:50;;;;;;;;;;;;;;;;;;1555442;28;88944;-58
2022/03/31 18:59:35;;;;;;;;;;;;;;;;;;1555766;28;87816;-56
2022/03/31 19:00:21;;;;;;;;;;;;;;;;;;1555841;28;90989;-58
2022/03/31 19:01:07;;;;;;;;;;;;;;;;;;1557195;27;90692;-57
2022/03/31 19:01:52;;;;;;;;;;;;;;;;;;1549520;28;86458;-58
2022/03/31 19:02:37;;;;;;;;;;;;;;;;;;1556444;28;87319;-57
2022/03/31 19:03:23;;;;;;;;;;;;;;;;;;1556002;27;87817;-58
2022/03/31 19:04:08;;;;;;;;;;;;;;;;;;1556233;27;89802;-58
2022/03/31 19:04:53;;;;;;;;;;;;;;;;;;1556407;28;92745;-54
2022/03/31 19:05:40;;;;;;;;;;;;;;;;;;1555762;28;93163;-58
2022/03/31 19:07:28;;;;;;;;;;;;;;;;;;1550416;28;87477;-58
2022/03/31 19:08:14;;;;;;;;;;;;;;;;;;1552616;28;93137;-55
2022/03/31 19:08:59;;;;;;;;;;;;;;;;;;1556257;28;84758;-57
2022/03/31 19:09:44;;;;;;;;;;;;;;;;;;1555874;28;93264;-57
2022/03/31 19:10:29;;;;;;;;;;;;;;;;;;1555328;27;92191;-58
2022/03/31 19:11:14;;;;;;;;;;;;;;;;;;1555762;28;93364;-55
2022/03/31 19:11:59;;;;;;;;;;;;;;;;;;1555210;28;88672;-55
2022/03/31 19:12:44;;;;;;;;;;;;;;;;;;1556381;28;94556;-57
2022/03/31 19:13:29;;;;;;;;;;;;;;;;;;1556151;28;90720;-55
2022/03/31 19:14:15;;;;;;;;;;;;;;;;;;1556088;28;89002;-56
2022/03/31 19:15:00;;;;;;;;;;;;;;;;;;1556573;27;88474;-54
2022/03/31 19:15:45;;;;;;;;;;;;;;;;;;1556086;28;86854;-54
2022/03/31 19:16:31;;;;;;;;;;;;;;;;;;1557176;27;85316;-55
2022/03/31 19:17:16;;;;;;;;;;;;;;;;;;1556499;27;88748;-57
2022/03/31 19:18:08;;;;;;;;;;;;;;;;;;1556689;28;90318;-57
2022/03/31 19:18:53;;;;;;;;;;;;;;;;;;1555947;28;90264;-53
2022/03/31 19:19:38;;;;;;;;;;;;;;;;;;1555912;28;89816;-56
2022/03/31 19:20:23;;;;;;;;;;;;;;;;;;1555734;28;88457;-58
2022/03/31 19:21:08;;;;;;;;;;;;;;;;;;1555249;27;89316;-62
2022/03/31 19:21:53;;;;;;;;;;;;;;;;;;1550509;28;91377;-62
2022/03/31 19:22:38;;;;;;;;;;;;;;;;;;1550438;28;92176;-61
2022/03/31 19:23:24;;;;;;;;;;;;;;;;;;1550639;28;88176;-62
2022/03/31 19:24:11;;;;;;;;;;;;;;;;;;1550734;28;83875;-61
2022/03/31 19:24:56;;;;;;;;;;;;;;;;;;1550656;28;94236;-62
2022/03/31 19:25:42;;;;;;;;;;;;;;;;;;1549773;28;87058;-62
2022/03/31 19:26:27;;;;;;;;;;;;;;;;;;1549462;28;92095;-62
2022/03/31 19:27:13;;;;;;;;;;;;;;;;;;1549845;28;89323;-61
2022/03/31 19:27:58;;;;;;;;;;;;;;;;;;1550719;28;89588;-61
2022/03/31 19:28:43;;;;;;;;;;;;;;;;;;1550423;28;89387;-62
2022/03/31 19:29:28;;;;;;;;;;;;;;;;;;1550528;28;91275;-61
2022/03/31 19:30:14;;;;;;;;;;;;;;;;;;1550139;28;89381;-61
2022/03/31 19:30:59;;;;;;;;;;;;;;;;;;1551611;28;84009;-58
2022/03/31 19:31:45;;;;;;;;;;;;;;;;;;1555873;28;89187;-58
2022/03/31 19:32:30;;;;;;;;;;;;;;;;;;1556157;28;95090;-61
2022/03/31 19:33:15;;;;;;;;;;;;;;;;;;1556485;28;93762;-62
2022/03/31 19:34:01;;;;;;;;;;;;;;;;;;1556679;28;88203;-62
2022/03/31 19:34:46;;;;;;;;;;;;;;;;;;1556488;28;91943;-62
2022/03/31 19:35:31;;;;;;;;;;;;;;;;;;1556707;28;90013;-62
2022/03/31 19:36:17;;;;;;;;;;;;;;;;;;1551674;28;93395;-60
2022/03/31 19:37:02;;;;;;;;;;;;;;;;;;1550266;28;94412;-60
2022/03/31 19:37:48;;;;;;;;;;;;;;;;;;1549586;28;92600;-61
2022/03/31 19:38:33;;;;;;;;;;;;;;;;;;1557075;28;99125;-60
2022/03/31 19:39:18;;;;;;;;;;;;;;;;;;1556305;28;92011;-60
2022/03/31 19:40:04;;;;;;;;;;;;;;;;;;1556552;28;94699;-60
2022/03/31 19:40:49;;;;;;;;;;;;;;;;;;1556340;28;83235;-61
2022/03/31 19:41:36;;;;;;;;;;;;;;;;;;1556712;28;89909;-60
2022/03/31 19:42:21;;;;;;;;;;;;;;;;;;1556721;28;94693;-59
2022/03/31 19:43:06;;;;;;;;;;;;;;;;;;1556629;28;94941;-59
2022/03/31 19:43:53;;;;;;;;;;;;;;;;;;1555936;28;96328;-60
2022/03/31 19:44:38;;;;;;;;;;;;;;;;;;1556704;28;88710;-60
2022/03/31 19:45:23;;;;;;;;;;;;;;;;;;1550422;28;96882;-62
2022/03/31 19:46:08;;;;;;;;;;;;;;;;;;1551442;28;90721;-62
2022/03/31 19:46:53;;;;;;;;;;;;;;;;;;1550410;28;94395;-59
2022/03/31 19:47:39;;;;;;;;;;;;;;;;;;1550298;28;92700;-59
2022/03/31 19:48:24;;;;;;;;;;;;;;;;;;1550273;28;98239;-60
2022/03/31 19:49:09;;;;;;;;;;;;;;;;;;1550412;28;93405;-61
2022/03/31 19:49:54;;;;;;;;;;;;;;;;;;1550144;28;90549;-61
2022/03/31 19:50:39;;;;;;;;;;;;;;;;;;1550737;28;84774;-60
2022/03/31 19:51:26;;;;;;;;;;;;;;;;;;1550994;28;97403;-61
2022/03/31 19:52:11;;;;;;;;;;;;;;;;;;1549721;28;97856;-60
2022/03/31 19:52:56;;;;;;;;;;;;;;;;;;1549658;28;98482;-60
2022/03/31 19:53:41;;;;;;;;;;;;;;;;;;1549653;28;98009;-60
2022/03/31 19:54:26;;;;;;;;;;;;;;;;;;1549526;28;95029;-60
2022/03/31 19:55:11;;;;;;;;;;;;;;;;;;1550007;28;95265;-60
2022/03/31 19:55:57;;;;;;;;;;;;;;;;;;1550409;28;91963;-60
2022/03/31 19:56:42;;;;;;;;;;;;;;;;;;1550205;28;98374;-60
2022/03/31 19:57:27;;;;;;;;;;;;;;;;;;1550363;28;96272;-60
2022/03/31 19:58:12;;;;;;;;;;;;;;;;;;1550184;28;102322;-60
2022/03/31 19:58:58;;;;;;;;;;;;;;;;;;1550144;28;89829;-60
2022/03/31 19:59:43;;;;;;;;;;;;;;;;;;1554494;28;94178;-60
2022/03/31 20:00:28;;;;;;;;;;;;;;;;;;1551133;28;94044;-60
2022/03/31 20:01:13;;;;;;;;;;;;;;;;;;1550270;28;97104;-60
2022/03/31 20:01:58;;;;;;;;;;;;;;;;;;1549908;28;97324;-60
2022/03/31 20:02:43;;;;;;;;;;;;;;;;;;1549518;28;100873;-60
2022/03/31 20:03:32;;;;;;;;;;;;;;;;;;1549531;28;97306;-60
2022/03/31 20:04:17;;;;;;;;;;;;;;;;;;1550323;28;83412;-60
2022/03/31 20:05:03;;;;;;;;;;;;;;;;;;1549913;28;101084;-61
2022/03/31 20:05:48;;;;;;;;;;;;;;;;;;1551192;28;89038;-61
2022/03/31 20:06:34;;;;;;;;;;;;;;;;;;1545679;28;94232;-61
2022/03/31 20:07:19;;;;;;;;;;;;;;;;;;1546796;28;85058;-61
2022/03/31 20:08:04;;;;;;;;;;;;;;;;;;1545988;28;91056;-61
2022/03/31 20:08:49;;;;;;;;;;;;;;;;;;1546057;28;94884;-61
2022/03/31 20:09:36;;;;;;;;;;;;;;;;;;1545278;28;84367;-59
2022/03/31 20:10:21;;;;;;;;;;;;;;;;;;1545928;28;93176;-60
2022/03/31 20:11:07;;;;;;;;;;;;;;;;;;1545754;28;89060;-60
2022/03/31 20:11:52;;;;;;;;;;;;;;;;;;1546162;28;86645;-60
2022/03/31 20:12:37;;;;;;;;;;;;;;;;;;1546037;28;94387;-60
2022/03/31 20:13:23;;;;;;;;;;;;;;;;;;1546707;28;90224;-59
2022/03/31 20:14:08;;;;;;;;;;;;;;;;;;1546088;28;85416;-60
2022/03/31 20:14:54;;;;;;;;;;;;;;;;;;1545896;28;94581;-60
2022/03/31 20:15:41;;;;;;;;;;;;;;;;;;1546101;28;98502;-60
2022/03/31 20:16:26;;;;;;;;;;;;;;;;;;1546076;28;90361;-60
2022/03/31 20:17:12;;;;;;;;;;;;;;;;;;1545892;28;100741;-59
2022/03/31 20:17:57;;;;;;;;;;;;;;;;;;1545637;28;98237;-59
2022/03/31 20:18:43;;;;;;;;;;;;;;;;;;1546045;28;92475;-58
2022/03/31 20:19:28;;;;;;;;;;;;;;;;;;1546030;28;97628;-58